Time;durP1;ratioP1;P1;durP2;ratioP2;P2;SDS_P1;SDS_P2;PMS_P1;PMS_P2;Temp;Humidity;BMP_temperature;BMP_pressure;BME280_temperature;BME280_humidity;BME280_pressure;Samples;Min_cycle;Max_cycle;Signal;HPM_P1;HPM_P2
2021/08/24 00:02:03;;;;;;;5.00;4.50;;;;;;;15.69;85.87;100819.85;227293;1208;138190;-74
2021/08/24 00:07:05;;;;;;;5.10;4.30;;;;;;;15.61;85.88;100819.66;227833;1202;138632;-73
2021/08/24 00:12:07;;;;;;;4.20;3.90;;;;;;;15.59;85.79;100819.90;227441;1202;138895;-72
2021/08/24 00:17:09;;;;;;;4.20;3.80;;;;;;;15.59;85.72;100822.13;227385;1207;139531;-73
2021/08/24 00:22:10;;;;;;;3.90;3.60;;;;;;;15.59;85.34;100821.70;227336;1201;138683;-73
2021/08/24 00:27:12;;;;;;;3.70;3.40;;;;;;;15.58;85.49;100829.44;227360;1208;139239;-73
2021/08/24 00:32:13;;;;;;;5.10;3.60;;;;;;;15.55;85.25;100836.35;227294;1207;138792;-73
2021/08/24 00:37:15;;;;;;;3.50;3.20;;;;;;;15.51;85.53;100845.29;227975;1208;138433;-77
2021/08/24 00:42:18;;;;;;;4.50;4.10;;;;;;;15.50;85.42;100842.27;227502;1206;138987;-74
2021/08/24 00:47:22;;;;;;;3.80;3.40;;;;;;;15.43;85.29;100844.98;227963;1202;138867;-73
2021/08/24 00:52:25;;;;;;;4.00;3.60;;;;;;;15.40;85.45;100845.40;229266;1201;138637;-74
2021/08/24 00:57:27;;;;;;;3.70;3.40;;;;;;;15.38;85.67;100849.54;228904;1200;138877;-73
2021/08/24 01:02:29;;;;;;;4.70;4.10;;;;;;;15.44;85.67;100861.21;228709;1208;138267;-77
2021/08/24 01:07:38;;;;;;;4.70;4.30;;;;;;;15.48;85.55;100860.56;227518;1202;138002;-74
2021/08/24 01:12:50;;;;;;;4.30;3.90;;;;;;;15.43;85.80;100862.48;227665;1202;139057;-73
2021/08/24 01:18:09;;;;;;;5.00;4.40;;;;;;;15.37;86.27;100861.23;227302;1208;139592;-75
2021/08/24 01:23:36;;;;;;;4.00;3.70;;;;;;;15.34;86.57;100859.08;227147;1200;139246;-74
2021/08/24 01:28:59;;;;;;;5.20;3.70;;;;;;;15.38;86.49;100867.65;227207;1207;139618;-73
2021/08/24 01:34:09;;;;;;;7.90;4.10;;;;;;;15.41;86.19;100872.67;227070;1201;139140;-74
2021/08/24 01:39:25;;;;;;;4.80;4.10;;;;;;;15.37;86.36;100872.20;227192;1208;139177;-74
2021/08/24 01:44:33;;;;;;;6.00;4.30;;;;;;;15.38;86.16;100873.52;227097;1207;138342;-74
2021/08/24 01:49:47;;;;;;;4.30;3.90;;;;;;;15.28;86.38;100864.94;227067;1206;138844;-74
2021/08/24 01:54:57;;;;;;;5.50;3.80;;;;;;;15.23;86.63;100859.26;227653;1201;138982;-75
2021/08/24 02:00:03;;;;;;;3.90;3.60;;;;;;;15.24;86.46;100857.75;227141;1201;138979;-73
2021/08/24 02:05:16;;;;;;;6.40;3.80;;;;;;;15.26;86.36;100854.83;227098;1207;139166;-73
2021/08/24 02:10:21;;;;;;;4.40;4.00;;;;;;;15.30;86.13;100852.12;227124;1208;139795;-73
2021/08/24 02:15:39;;;;;;;4.30;3.90;;;;;;;15.26;85.99;100853.77;227153;1208;138262;-73
2021/08/24 02:20:53;;;;;;;4.80;4.30;;;;;;;15.18;86.44;100855.09;227740;1200;138363;-73
2021/08/24 02:25:58;;;;;;;4.80;3.70;;;;;;;15.13;86.59;100856.45;227583;1200;139387;-74
2021/08/24 02:31:18;;;;;;;3.90;3.50;;;;;;;15.16;86.48;100857.02;227249;1206;139814;-74
2021/08/24 02:36:22;;;;;;;3.80;3.50;;;;;;;15.16;86.33;100859.21;227022;1208;139194;-75
2021/08/24 02:41:36;;;;;;;5.30;4.00;;;;;;;15.19;86.35;100861.66;227220;1208;138395;-73
2021/08/24 02:46:46;;;;;;;4.60;4.20;;;;;;;15.16;86.19;100851.66;227197;1208;138553;-75
2021/08/24 02:51:51;;;;;;;5.60;4.20;;;;;;;15.12;86.39;100850.70;227495;1201;138368;-74
2021/08/24 02:56:54;;;;;;;4.30;3.90;;;;;;;15.07;86.45;100850.63;227756;1201;138901;-74
2021/08/24 03:01:56;;;;;;;4.50;3.60;;;;;;;15.10;86.27;100851.88;227069;1200;138964;-73
2021/08/24 03:07:04;;;;;;;5.20;3.50;;;;;;;15.15;85.86;100855.17;226980;1207;138764;-74
2021/08/24 03:12:43;;;;;;;4.70;3.50;;;;;;;15.19;85.69;100857.54;227005;1201;138902;-74
2021/08/24 03:18:10;;;;;;;5.00;3.90;;;;;;;15.22;85.47;100859.02;227173;1208;138739;-72
2021/08/24 03:23:16;;;;;;;6.30;4.50;;;;;;;15.18;85.31;100860.84;227146;1207;137966;-72
2021/08/24 03:28:21;;;;;;;5.10;4.00;;;;;;;15.09;85.52;100861.36;227205;1204;139153;-73
2021/08/24 03:33:23;;;;;;;5.70;4.00;;;;;;;15.05;85.75;100863.15;227079;1201;138931;-74
2021/08/24 03:38:25;;;;;;;4.70;4.30;;;;;;;15.03;85.64;100863.64;227106;1200;139138;-73
2021/08/24 03:43:26;;;;;;;4.50;4.10;;;;;;;15.07;85.69;100871.19;227382;1207;139268;-72
2021/08/24 03:48:28;;;;;;;4.60;4.00;;;;;;;15.09;85.47;100875.55;226873;1204;139087;-73
2021/08/24 03:53:32;;;;;;;4.70;4.30;;;;;;;15.11;85.36;100877.55;226922;1208;138965;-73
2021/08/24 03:58:35;;;;;;;6.20;5.70;;;;;;;15.09;85.47;100877.14;227240;1207;138536;-74
2021/08/24 04:03:37;;;;;;;7.00;6.00;;;;;;;15.03;85.52;100870.04;226979;1208;138485;-73
2021/08/24 04:08:38;;;;;;;6.20;5.60;;;;;;;14.98;85.58;100871.34;226982;1201;139250;-72
2021/08/24 04:13:40;;;;;;;5.90;5.40;;;;;;;15.00;85.81;100873.97;226932;1208;138938;-72
2021/08/24 04:18:42;;;;;;;7.00;5.40;;;;;;;15.01;86.02;100877.86;226884;1207;141792;-73
2021/08/24 04:23:46;;;;;;;6.80;5.40;;;;;;;15.03;85.83;100880.92;227263;1200;139153;-74
2021/08/24 04:28:47;;;;;;;6.50;5.10;;;;;;;15.06;85.80;100881.95;227151;1207;139030;-71
2021/08/24 04:33:49;;;;;;;6.30;4.80;;;;;;;15.07;85.95;100885.98;226921;1208;139445;-72
2021/08/24 04:38:51;;;;;;;6.60;5.30;;;;;;;15.07;85.73;100890.33;227046;1200;138130;-73
2021/08/24 04:43:53;;;;;;;8.10;5.40;;;;;;;14.99;85.69;100882.42;226874;1206;138604;-73
2021/08/24 04:48:55;;;;;;;4.70;4.00;;;;;;;14.93;85.52;100880.47;226785;1208;139426;-73
2021/08/24 04:53:56;;;;;;;4.50;3.50;;;;;;;14.88;85.02;100883.17;226886;1208;139098;-73
2021/08/24 04:58:58;;;;;;;3.80;3.00;;;;;;;14.87;84.53;100878.19;226853;1207;138692;-74
2021/08/24 05:04:00;;;;;;;5.20;3.20;;;;;;;14.82;84.13;100875.17;226919;1200;138952;-73
2021/08/24 05:09:02;;;;;;;3.60;3.30;;;;;;;14.82;83.90;100882.42;226832;1204;138459;-73
2021/08/24 05:14:03;;;;;;;4.00;3.00;;;;;;;14.76;83.70;100883.63;227827;1208;139057;-72
2021/08/24 05:19:05;;;;;;;4.10;3.20;;;;;;;14.68;83.73;100889.81;227763;1207;138664;-73
2021/08/24 05:24:07;;;;;;;5.10;3.00;;;;;;;14.68;83.59;100893.55;226876;1207;138955;-72
2021/08/24 05:29:09;;;;;;;5.30;3.40;;;;;;;14.68;83.38;100897.83;227100;1200;138916;-75
2021/08/24 05:34:11;;;;;;;6.20;4.80;;;;;;;14.62;82.95;100896.58;227389;1207;138421;-71
2021/08/24 05:39:13;;;;;;;5.70;5.10;;;;;;;14.55;82.90;100901.09;227231;1207;138153;-73
2021/08/24 05:44:15;;;;;;;8.10;5.50;;;;;;;14.49;83.03;100905.39;227987;1207;138182;-73
2021/08/24 05:49:17;;;;;;;5.60;4.10;;;;;;;14.42;83.28;100919.98;227286;1201;139677;-74
2021/08/24 05:54:18;;;;;;;4.90;3.30;;;;;;;14.41;83.20;100931.25;226915;1207;139373;-74
2021/08/24 05:59:20;;;;;;;6.00;3.70;;;;;;;14.39;83.51;100943.52;226837;1200;139264;-74
2021/08/24 06:04:23;;;;;;;6.10;3.00;;;;;;;14.42;83.56;100949.84;226926;1207;138353;-73
2021/08/24 06:09:25;;;;;;;3.30;2.90;;;;;;;14.45;83.15;100957.25;226964;1207;138179;-73
2021/08/24 06:14:27;;;;;;;5.30;3.40;;;;;;;14.35;83.25;100958.83;227072;1201;138950;-72
2021/08/24 06:19:30;;;;;;;6.70;3.50;;;;;;;14.31;83.25;100961.55;226918;1204;138711;-74
2021/08/24 06:24:33;;;;;;;10.90;3.60;;;;;;;14.33;83.15;100965.08;227053;1201;138902;-73
2021/08/24 06:29:34;;;;;;;4.50;2.60;;;;;;;14.37;83.00;100960.90;226906;1202;139350;-73
2021/08/24 06:34:36;;;;;;;6.50;2.10;;;;;;;14.35;82.76;100963.20;226956;1202;139194;-74
2021/08/24 06:39:37;;;;;;;3.90;2.90;;;;;;;14.32;82.80;100964.14;226971;1207;138638;-72
2021/08/24 06:44:39;;;;;;;6.60;2.70;;;;;;;14.23;82.79;100966.45;226965;1207;138559;-72
2021/08/24 06:49:41;;;;;;;2.80;2.50;;;;;;;14.18;82.74;100964.37;226942;1207;142256;-73
2021/08/24 06:54:42;;;;;;;4.60;2.70;;;;;;;14.23;82.60;100973.73;227007;1208;139909;-70
2021/08/24 06:59:44;;;;;;;5.40;2.60;;;;;;;14.26;82.04;100972.20;227026;1204;138932;-69
2021/08/24 07:04:48;;;;;;;3.20;2.30;;;;;;;14.29;81.67;100977.93;227111;1202;138356;-69
2021/08/24 07:09:51;;;;;;;5.10;2.60;;;;;;;14.26;81.61;100977.88;227086;1208;138062;-72
2021/08/24 07:14:53;;;;;;;3.90;2.50;;;;;;;14.21;81.31;100976.58;227201;1208;141814;-72
2021/08/24 07:19:55;;;;;;;4.80;2.40;;;;;;;14.25;81.10;100982.44;227105;1208;139081;-73
2021/08/24 07:24:56;;;;;;;4.20;2.50;;;;;;;14.30;80.97;100989.86;227013;1207;138903;-77
2021/08/24 07:29:58;;;;;;;5.20;2.20;;;;;;;14.31;80.97;100993.05;227041;1200;138448;-75
2021/08/24 07:35:01;;;;;;;3.80;2.60;;;;;;;14.29;80.67;100993.29;227774;1201;139262;-73
2021/08/24 07:40:05;;;;;;;5.10;2.70;;;;;;;14.31;80.99;100996.11;227008;1208;139464;-74
2021/08/24 07:45:08;;;;;;;5.30;2.40;;;;;;;14.38;80.75;100996.23;227052;1207;139174;-74
2021/08/24 07:50:10;;;;;;;5.30;2.30;;;;;;;14.47;79.93;100996.55;227138;1207;138466;-73
2021/08/24 07:55:12;;;;;;;3.00;2.20;;;;;;;14.43;79.74;100998.51;227055;1204;138207;-73
2021/08/24 08:00:14;;;;;;;4.80;2.30;;;;;;;14.42;79.61;101000.06;227028;1207;138199;-76
2021/08/24 08:05:17;;;;;;;4.20;1.90;;;;;;;14.38;79.33;101001.34;226917;1207;139151;-72
2021/08/24 08:10:19;;;;;;;5.00;2.30;;;;;;;14.41;78.96;101011.33;227088;1200;138786;-74
2021/08/24 08:15:21;;;;;;;3.20;1.80;;;;;;;14.48;78.95;101012.42;227235;1208;138513;-72
2021/08/24 08:20:22;;;;;;;5.50;2.10;;;;;;;14.48;78.78;101017.36;227041;1207;138249;-72
2021/08/24 08:25:24;;;;;;;3.20;1.50;;;;;;;14.41;78.84;101019.88;226961;1207;138269;-72
2021/08/24 08:30:26;;;;;;;1.60;1.30;;;;;;;14.37;78.27;101014.05;226905;1201;138755;-74
2021/08/24 08:35:29;;;;;;;1.80;1.60;;;;;;;14.38;77.61;101021.95;226852;1208;139190;-73
2021/08/24 08:40:36;;;;;;;2.20;1.70;;;;;;;14.44;77.43;101030.19;226938;1201;138431;-73
2021/08/24 08:45:50;;;;;;;4.00;1.40;;;;;;;14.44;77.27;101036.33;226864;1204;138089;-73
2021/08/24 08:51:00;;;;;;;5.20;1.60;;;;;;;14.42;76.78;101040.48;226897;1207;139057;-72
2021/08/24 08:56:12;;;;;;;1.80;1.50;;;;;;;14.43;76.84;101039.84;226850;1208;138343;-72
2021/08/24 09:01:21;;;;;;;4.60;3.60;;;;;;;14.49;76.90;101042.61;227029;1201;137909;-70
2021/08/24 09:06:26;;;;;;;6.50;2.50;;;;;;;14.40;75.66;101045.11;226978;1200;138283;-72
2021/08/24 09:11:33;;;;;;;6.60;4.80;;;;;;;14.39;75.27;101052.48;227094;1207;140270;-72
2021/08/24 09:16:46;;;;;;;4.70;3.70;;;;;;;14.43;74.81;101050.11;227059;1208;138409;-72
2021/08/24 09:21:48;;;;;;;4.00;2.70;;;;;;;14.47;74.74;101049.54;226920;1201;138477;-73
2021/08/24 09:27:11;;;;;;;2.40;1.90;;;;;;;14.44;75.12;101050.54;227403;1207;139522;-71
2021/08/24 09:32:19;;;;;;;3.50;1.50;;;;;;;14.43;73.89;101055.85;227570;1207;139311;-73
2021/08/24 09:37:22;;;;;;;2.20;1.80;;;;;;;14.49;72.79;101057.38;227623;1201;139175;-74
2021/08/24 09:42:54;;;;;;;6.40;1.60;;;;;;;14.53;72.46;101058.56;226999;1201;138800;-73
2021/08/24 09:47:56;;;;;;;4.50;2.20;;;;;;;14.55;73.14;101065.66;226844;1207;138311;-73
2021/08/24 09:52:59;;;;;;;2.60;1.40;;;;;;;14.57;73.98;101062.36;227006;1207;139282;-74
2021/08/24 09:58:07;;;;;;;1.80;1.20;;;;;;;14.61;74.51;101062.63;227159;1202;138338;-73
2021/08/24 10:03:21;;;;;;;2.90;1.40;;;;;;;14.69;74.28;101065.73;226898;1207;138889;-75
2021/08/24 10:08:35;;;;;;;1.90;1.30;;;;;;;14.71;74.65;101065.48;227141;1207;138216;-73
2021/08/24 10:13:40;;;;;;;3.60;1.20;;;;;;;14.68;74.43;101067.06;226868;1207;138787;-72
2021/08/24 10:18:44;;;;;;;2.40;1.20;;;;;;;14.72;73.42;101070.55;226993;1203;222748;-75
2021/08/24 10:23:57;;;;;;;1.60;1.20;;;;;;;14.75;73.45;101070.22;226986;1200;138081;-75
2021/08/24 10:29:03;;;;;;;2.40;1.50;;;;;;;14.68;73.43;101064.70;226990;1207;138216;-77
2021/08/24 10:34:07;;;;;;;;;;;;;;;14.73;73.45;101073.37;226886;1207;139599;-75
2021/08/24 10:39:29;;;;;;;2.50;2.10;;;;;;;14.80;73.01;101067.36;226935;1208;125417;-75
2021/08/24 10:44:44;;;;;;;2.90;2.50;;;;;;;14.86;72.68;101070.27;227167;1201;139172;-74
2021/08/24 10:49:46;;;;;;;5.00;3.00;;;;;;;14.86;72.58;101073.77;226892;1201;138424;-74
2021/08/24 10:55:01;;;;;;;3.20;2.90;;;;;;;14.80;71.96;101077.48;226836;1207;139252;-74
2021/08/24 11:00:13;;;;;;;4.10;3.70;;;;;;;14.83;72.23;101078.36;226865;1207;139264;-73
2021/08/24 11:05:30;;;;;;;6.00;3.90;;;;;;;14.90;72.28;101078.33;226986;1201;140970;-73
2021/08/24 11:10:39;;;;;;;5.60;3.40;;;;;;;14.98;72.30;101082.48;227823;1207;138064;-73
2021/08/24 11:15:53;;;;;;;4.80;3.20;;;;;;;15.00;72.53;101084.59;227189;1202;138635;-72
2021/08/24 11:21:05;;;;;;;3.80;2.40;;;;;;;14.95;72.07;101087.69;227025;1208;139040;-73
2021/08/24 11:26:22;;;;;;;5.30;2.90;;;;;;;14.99;72.08;101089.31;227128;1201;138620;-73
2021/08/24 11:31:46;;;;;;;2.80;1.60;;;;;;;15.06;71.58;101094.02;226851;1207;138335;-75
2021/08/24 11:36:59;;;;;;;2.30;2.10;;;;;;;15.10;71.22;101102.17;226859;1207;138484;-73
2021/08/24 11:42:03;;;;;;;2.40;1.40;;;;;;;15.06;71.22;101108.19;226996;1208;139124;-73
2021/08/24 11:47:12;;;;;;;4.10;2.70;;;;;;;15.02;70.86;101107.79;226882;1207;138009;-73
2021/08/24 11:52:31;;;;;;;2.80;1.20;;;;;;;15.07;71.20;101117.38;227032;1207;140828;-74
2021/08/24 11:57:41;;;;;;;2.30;1.40;;;;;;;15.21;71.50;101121.39;226842;1201;138575;-73
2021/08/24 12:02:50;;;;;;;2.00;1.00;;;;;;;15.24;70.19;101118.86;227041;1208;138161;-73
2021/08/24 12:08:14;;;;;;;1.60;1.20;;;;;;;15.25;69.84;101121.79;227496;1201;138243;-72
2021/08/24 12:13:36;;;;;;;2.90;2.00;;;;;;;15.25;69.93;101125.55;226903;1202;138568;-73
2021/08/24 12:18:38;;;;;;;5.40;1.90;;;;;;;15.31;70.69;101127.88;226978;1202;139170;-73
2021/08/24 12:23:42;;;;;;;1.60;1.00;;;;;;;15.41;69.56;101121.96;227066;1201;139363;-74
2021/08/24 12:28:44;;;;;;;2.80;0.90;;;;;;;15.46;68.31;101125.19;226951;1207;138335;-74
2021/08/24 12:33:46;;;;;;;2.50;0.90;;;;;;;15.44;68.48;101123.21;227048;1207;138364;-74
2021/08/24 12:38:55;;;;;;;2.90;1.40;;;;;;;15.41;68.81;101124.86;226890;1202;139846;-72
2021/08/24 12:44:24;;;;;;;4.00;1.30;;;;;;;15.43;68.96;101129.61;226926;1208;139346;-74
2021/08/24 12:49:29;;;;;;;2.00;1.20;;;;;;;15.53;69.11;101132.15;227483;1203;138635;-73
2021/08/24 12:54:43;;;;;;;2.90;1.50;;;;;;;15.53;67.33;101133.18;227036;1207;137930;-74
2021/08/24 12:59:52;;;;;;;3.30;1.50;;;;;;;15.48;67.30;101134.44;226809;1207;138140;-69
2021/08/24 13:05:01;;;;;;;2.90;1.20;;;;;;;15.44;67.06;101139.94;227130;1207;138202;-73
2021/08/24 13:10:25;;;;;;;3.10;1.50;;;;;;;15.43;66.46;101142.20;227452;1201;139658;-75
2021/08/24 13:15:29;;;;;;;4.40;2.50;;;;;;;15.45;65.51;101148.23;227059;1207;139011;-75
2021/08/24 13:20:43;;;;;;;5.00;2.30;;;;;;;15.46;65.39;101151.16;227356;1201;138856;-75
2021/08/24 13:25:53;;;;;;;3.20;2.40;;;;;;;15.42;65.95;101152.23;228374;1202;138461;-75
2021/08/24 13:31:00;;;;;;;4.60;2.00;;;;;;;15.36;65.26;101154.89;228092;1202;138066;-77
2021/08/24 13:36:19;;;;;;;4.70;1.90;;;;;;;15.33;65.09;101155.53;227726;1201;138479;-75
2021/08/24 13:41:28;;;;;;;3.30;1.80;;;;;;;15.35;65.48;101152.68;228585;1205;139324;-74
2021/08/24 13:46:34;;;;;;;3.30;1.50;;;;;;;15.43;64.91;101151.02;228113;1206;140173;-71
2021/08/24 13:51:51;;;;;;;7.00;1.90;;;;;;;15.47;64.56;101155.48;227218;1208;138699;-73
2021/08/24 13:56:54;;;;;;;2.80;2.00;;;;;;;15.46;65.06;101152.59;227020;1208;138115;-74
2021/08/24 14:01:57;;;;;;;4.50;2.10;;;;;;;15.42;65.85;101154.02;227121;1207;138583;-73
2021/08/24 14:07:03;;;;;;;5.80;2.60;;;;;;;15.35;65.16;101153.59;226957;1207;138526;-73
2021/08/24 14:12:16;;;;;;;4.00;2.10;;;;;;;15.36;64.88;101159.98;226967;1208;140159;-74
2021/08/24 14:17:26;;;;;;;4.00;3.00;;;;;;;15.44;64.14;101158.25;227037;1208;138850;-72
2021/08/24 14:22:29;;;;;;;4.50;3.70;;;;;;;15.46;63.30;101157.02;227081;1208;138345;-71
2021/08/24 14:27:31;;;;;;;5.20;3.10;;;;;;;15.44;63.64;101157.22;227021;1208;138199;-74
2021/08/24 14:32:37;;;;;;;3.60;2.60;;;;;;;15.39;63.72;101161.31;227118;1201;138231;-73
2021/08/24 14:37:47;;;;;;;4.70;3.00;;;;;;;15.36;64.10;101162.91;226927;1202;138121;-73
2021/08/24 14:42:56;;;;;;;5.90;3.60;;;;;;;15.31;63.53;101166.92;227040;1206;137984;-73
2021/08/24 14:48:01;;;;;;;5.20;3.20;;;;;;;15.29;63.11;101162.37;227035;1207;138700;-75
2021/08/24 14:53:07;;;;;;;6.70;2.80;;;;;;;15.37;63.89;101167.73;227065;1206;138830;-73
2021/08/24 14:58:17;;;;;;;3.70;2.90;;;;;;;15.38;64.11;101169.70;227082;1208;137922;-73
2021/08/24 15:03:26;;;;;;;3.30;2.70;;;;;;;15.33;63.95;101170.61;227024;1208;138481;-75
2021/08/24 15:08:39;;;;;;;3.30;2.50;;;;;;;15.29;64.32;101165.91;227110;1207;138327;-74
2021/08/24 15:13:55;;;;;;;3.30;2.50;;;;;;;15.24;64.71;101172.98;227149;1208;137948;-74
2021/08/24 15:18:59;;;;;;;4.00;3.00;;;;;;;15.20;64.14;101180.54;226988;1207;139226;-73
2021/08/24 15:24:20;;;;;;;4.40;2.60;;;;;;;15.20;65.17;101187.16;227069;1201;139847;-74
2021/08/24 15:29:27;;;;;;;3.10;2.70;;;;;;;15.26;64.97;101190.27;227318;1204;139467;-72
2021/08/24 15:34:30;;;;;;;3.30;2.40;;;;;;;15.28;65.13;101198.22;227088;1206;138883;-73
2021/08/24 15:39:34;;;;;;;4.00;2.50;;;;;;;15.22;64.44;101197.71;227250;1202;138467;-74
2021/08/24 15:44:42;;;;;;;5.20;2.60;;;;;;;15.15;64.49;101202.96;227148;1208;138601;-75
2021/08/24 15:49:45;;;;;;;3.00;2.40;;;;;;;15.09;63.49;101201.27;228282;1201;138398;-73
2021/08/24 15:54:47;;;;;;;3.00;2.70;;;;;;;15.03;63.83;101197.67;228977;1208;137823;-72
2021/08/24 15:59:49;;;;;;;3.30;2.90;;;;;;;14.97;64.05;101199.55;228192;1207;139186;-73
2021/08/24 16:04:51;;;;;;;3.90;3.00;;;;;;;14.91;64.03;101204.26;228420;1201;138252;-73
2021/08/24 16:09:53;;;;;;;4.60;3.10;;;;;;;14.90;63.91;101209.14;227073;1202;139033;-74
2021/08/24 16:14:55;;;;;;;4.50;2.90;;;;;;;14.92;63.99;101206.25;227928;1202;138821;-74
2021/08/24 16:19:57;;;;;;;4.80;2.70;;;;;;;14.89;64.79;101205.15;227502;1205;138086;-74
2021/08/24 16:25:02;;;;;;;4.00;2.70;;;;;;;14.82;64.61;101202.20;227149;1208;139278;-73
2021/08/24 16:30:05;;;;;;;3.30;2.70;;;;;;;14.83;63.88;101205.03;227033;1207;138912;-74
2021/08/24 16:35:12;;;;;;;3.50;2.50;;;;;;;14.80;64.81;101207.65;227146;1205;138075;-74
2021/08/24 16:40:14;;;;;;;3.70;2.90;;;;;;;14.75;64.86;101219.04;227074;1208;138265;-73
2021/08/24 16:45:19;;;;;;;3.00;2.60;;;;;;;14.80;65.64;101218.56;228170;1208;138039;-74
2021/08/24 16:50:22;;;;;;;5.80;3.50;;;;;;;14.82;64.62;101220.10;227251;1208;137981;-73
2021/08/24 16:55:26;;;;;;;3.90;3.20;;;;;;;14.89;63.84;101220.23;227022;1208;139126;-73
2021/08/24 17:00:28;;;;;;;4.00;3.00;;;;;;;14.94;63.92;101227.69;227170;1208;138430;-74
2021/08/24 17:05:31;;;;;;;4.00;3.20;;;;;;;14.92;64.48;101228.02;227316;1202;139104;-73
2021/08/24 17:10:36;;;;;;;3.60;3.10;;;;;;;14.85;65.01;101223.45;227280;1208;138381;-74
2021/08/24 17:15:44;;;;;;;6.00;3.60;;;;;;;14.65;65.74;101222.35;227546;1202;138418;-74
2021/08/24 17:20:50;;;;;;;4.80;3.30;;;;;;;14.59;65.99;101222.35;227403;1208;138266;-73
2021/08/24 17:25:56;;;;;;;5.20;3.20;;;;;;;14.56;66.03;101229.36;228356;1201;160791;-75
2021/08/24 17:30:59;;;;;;;8.60;3.50;;;;;;;14.42;66.44;101232.31;227623;1205;138177;-74
2021/08/24 17:36:03;;;;;;;6.10;3.40;;;;;;;14.28;66.80;101234.02;227546;1208;138888;-72
2021/08/24 17:41:05;;;;;;;6.30;3.30;;;;;;;14.24;67.47;101232.93;227696;1202;138605;-74
2021/08/24 17:46:06;;;;;;;5.40;3.40;;;;;;;14.17;68.26;101237.36;227281;1208;140989;-73
2021/08/24 17:51:15;;;;;;;3.80;3.00;;;;;;;14.09;68.58;101241.10;227727;1206;138056;-76
2021/08/24 17:56:19;;;;;;;4.20;3.40;;;;;;;14.02;68.67;101244.29;229331;1202;140133;-74
2021/08/24 18:01:22;;;;;;;7.30;3.20;;;;;;;13.92;69.34;101246.82;228012;1208;138305;-74
2021/08/24 18:06:36;;;;;;;6.20;3.40;;;;;;;13.91;69.58;101244.26;227657;1208;137954;-76
2021/08/24 18:11:38;;;;;;;9.60;5.00;;;;;;;13.93;69.49;101245.65;227518;1208;139231;-73
2021/08/24 18:16:40;;;;;;;6.20;4.50;;;;;;;14.07;68.37;101246.92;227450;1208;138816;-72
2021/08/24 18:21:42;;;;;;;6.20;3.80;;;;;;;14.10;68.04;101247.15;227809;1202;138635;-74
2021/08/24 18:26:44;;;;;;;4.40;3.50;;;;;;;14.07;68.18;101245.17;227408;1207;138641;-75
2021/08/24 18:31:46;;;;;;;4.00;3.60;;;;;;;13.99;68.71;101241.19;227481;1208;138388;-75
2021/08/24 18:36:48;;;;;;;5.30;3.70;;;;;;;13.81;68.97;101245.09;227643;1207;138394;-74
2021/08/24 18:41:49;;;;;;;4.20;3.60;;;;;;;13.71;69.29;101250.55;227302;1208;137979;-72
2021/08/24 18:46:51;;;;;;;6.80;3.90;;;;;;;13.64;69.36;101250.66;227279;1207;138306;-74
2021/08/24 18:51:53;;;;;;;6.00;3.60;;;;;;;13.64;69.41;101245.95;227361;1207;139223;-74
2021/08/24 18:56:55;;;;;;;5.20;3.40;;;;;;;13.61;69.60;101246.23;227645;1206;138818;-75
2021/08/24 19:01:57;;;;;;;5.10;3.90;;;;;;;13.60;69.92;101245.23;227279;1208;137988;-75
2021/08/24 19:06:59;;;;;;;4.40;3.10;;;;;;;13.63;69.92;101243.14;227314;1201;138220;-74
2021/08/24 19:12:00;;;;;;;4.50;3.10;;;;;;;13.54;69.91;101240.77;227626;1208;138186;-75
2021/08/24 19:17:03;;;;;;;5.10;3.60;;;;;;;13.47;70.05;101233.96;227393;1204;139105;-75
2021/08/24 19:22:05;;;;;;;5.90;4.10;;;;;;;13.45;70.21;101237.85;227512;1208;138287;-73
2021/08/24 19:27:07;;;;;;;5.40;4.00;;;;;;;13.44;70.29;101235.33;227223;1207;139079;-74
2021/08/24 19:32:09;;;;;;;5.20;3.80;;;;;;;13.44;69.91;101235.66;228269;1208;138451;-74
2021/08/24 19:37:12;;;;;;;5.60;3.70;;;;;;;13.45;69.98;101234.27;228474;1200;138429;-73
2021/08/24 19:42:13;;;;;;;5.70;3.60;;;;;;;13.42;70.21;101227.73;227441;1202;138255;-73
2021/08/24 19:47:15;;;;;;;6.40;3.70;;;;;;;13.41;69.75;101229.25;227598;1206;138273;-72
2021/08/24 19:52:18;;;;;;;8.60;4.60;;;;;;;13.34;70.11;101230.48;227311;1198;138281;-74
2021/08/24 19:57:20;;;;;;;4.80;3.90;;;;;;;13.27;70.28;101224.94;227371;1207;137993;-74
2021/08/24 20:02:22;;;;;;;6.40;4.20;;;;;;;13.27;70.32;101228.67;227575;1208;139263;-75
2021/08/24 20:07:24;;;;;;;4.50;4.10;;;;;;;13.35;69.48;101226.65;227222;1208;138349;-73
2021/08/24 20:12:28;;;;;;;5.80;4.10;;;;;;;13.37;69.35;101229.06;227158;1208;138496;-74
2021/08/24 20:17:30;;;;;;;5.50;4.30;;;;;;;13.34;69.63;101226.60;227289;1200;138467;-74
2021/08/24 20:22:31;;;;;;;4.40;3.70;;;;;;;13.29;69.80;101224.23;227253;1201;138492;-72
2021/08/24 20:27:33;;;;;;;6.40;3.90;;;;;;;13.16;70.24;101226.34;227159;1207;139034;-74
2021/08/24 20:32:35;;;;;;;4.90;4.00;;;;;;;13.04;70.66;101226.31;227313;1208;138751;-74
2021/08/24 20:37:37;;;;;;;5.20;4.30;;;;;;;12.98;71.26;101227.02;227119;1207;138826;-74
2021/08/24 20:42:39;;;;;;;6.00;4.20;;;;;;;12.98;71.48;101229.16;227113;1204;138278;-72
2021/08/24 20:47:41;;;;;;;6.50;4.50;;;;;;;13.04;70.76;101228.23;227183;1207;137968;-74
2021/08/24 20:52:43;;;;;;;5.70;4.50;;;;;;;13.07;70.72;101224.65;227080;1208;138269;-73
2021/08/24 20:57:45;;;;;;;5.90;4.20;;;;;;;12.97;70.73;101224.13;227105;1207;138183;-73
2021/08/24 21:02:46;;;;;;;6.50;4.40;;;;;;;12.88;71.25;101222.54;227153;1207;137926;-74
2021/08/24 21:07:48;;;;;;;7.10;4.80;;;;;;;12.77;71.49;101220.53;227193;1207;138063;-74
2021/08/24 21:12:51;;;;;;;8.20;4.80;;;;;;;12.75;72.15;101222.16;228086;1200;138906;-73
2021/08/24 21:17:53;;;;;;;6.50;5.10;;;;;;;12.85;71.95;101222.31;227274;1207;138701;-74
2021/08/24 21:22:55;;;;;;;6.20;4.70;;;;;;;12.90;71.86;101226.02;227184;1200;138521;-72
2021/08/24 21:27:57;;;;;;;6.90;5.20;;;;;;;12.92;71.75;101219.41;227175;1207;141627;-75
2021/08/24 21:32:59;;;;;;;6.20;4.60;;;;;;;12.88;71.58;101215.61;227222;1208;139040;-75
2021/08/24 21:38:02;;;;;;;8.10;5.30;;;;;;;12.79;72.16;101217.53;227200;1207;139161;-73
2021/08/24 21:43:04;;;;;;;9.00;5.30;;;;;;;12.73;72.10;101221.33;227334;1201;139014;-73
2021/08/24 21:48:06;;;;;;;8.40;5.30;;;;;;;12.69;72.12;101222.02;227115;1207;138796;-74
2021/08/24 21:53:07;;;;;;;8.40;6.10;;;;;;;12.73;72.52;101217.22;227359;1201;138514;-74
2021/08/24 21:58:10;;;;;;;8.00;5.20;;;;;;;12.75;72.56;101213.17;227295;1208;138059;-74
2021/08/24 22:03:11;;;;;;;7.60;5.30;;;;;;;12.70;72.71;101212.20;227340;1204;138035;-73
2021/08/24 22:08:21;;;;;;;7.00;5.20;;;;;;;12.62;73.22;101209.79;228714;1200;138584;-74
2021/08/24 22:13:23;;;;;;;8.80;5.80;;;;;;;12.52;72.95;101204.36;229870;1200;137830;-71
2021/08/24 22:18:24;;;;;;;9.10;5.40;;;;;;;12.45;73.46;101205.90;226980;1200;139228;-73
2021/08/24 22:23:29;;;;;;;7.50;5.60;;;;;;;12.47;73.35;101204.98;227142;1208;139532;-74
2021/08/24 22:28:34;;;;;;;8.10;5.20;;;;;;;12.43;73.44;101206.14;227575;1208;138483;-75
2021/08/24 22:33:36;;;;;;;8.20;5.50;;;;;;;12.41;73.68;101202.73;227488;1208;138184;-73
2021/08/24 22:38:45;;;;;;;6.40;5.00;;;;;;;12.31;74.24;101198.94;227206;1208;138663;-73
2021/08/24 22:43:49;;;;;;;8.40;5.70;;;;;;;12.24;74.04;101198.56;227027;1208;138578;-74
2021/08/24 22:48:51;;;;;;;8.50;5.30;;;;;;;12.13;74.06;101191.31;227184;1208;139411;-72
2021/08/24 22:53:53;;;;;;;8.40;6.20;;;;;;;12.12;74.30;101191.37;227227;1208;138692;-72
2021/08/24 22:58:56;;;;;;;8.50;5.40;;;;;;;12.10;74.31;101188.06;227018;1207;137829;-73
2021/08/24 23:03:57;;;;;;;6.90;5.70;;;;;;;11.98;74.72;101182.46;226980;1207;138169;-72
2021/08/24 23:08:59;;;;;;;8.40;5.40;;;;;;;11.86;75.03;101182.34;226872;1208;138023;-70